Time;durP1;ratioP1;P1;durP2;ratioP2;P2;SDS_P1;SDS_P2;PMS_P1;PMS_P2;Temp;Humidity;BMP_temperature;BMP_pressure;BME280_temperature;BME280_humidity;BME280_pressure;Samples;Min_cycle;Max_cycle;Signal;HPM_P1;HPM_P2
2021/09/29 00:02:16;;;;;;;7.70;6.15;;;16.30;72.80;;;;;;5052785;28;20063;-66
2021/09/29 00:04:41;;;;;;;7.35;6.10;;;16.30;72.80;;;;;;5048534;28;21937;-67
2021/09/29 00:07:08;;;;;;;7.50;6.20;;;16.30;72.80;;;;;;5053897;28;20033;-67
2021/09/29 00:09:34;;;;;;;7.70;6.35;;;16.30;72.80;;;;;;5053077;28;20040;-67
2021/09/29 00:12:00;;;;;;;6.93;5.95;;;16.30;73.00;;;;;;5048598;28;20040;-66
2021/09/29 00:14:26;;;;;;;7.30;6.22;;;16.30;73.10;;;;;;5051237;28;20044;-67
2021/09/29 00:16:52;;;;;;;10.75;6.43;;;16.30;73.20;;;;;;5051932;28;20409;-67
2021/09/29 00:19:17;;;;;;;8.77;6.38;;;16.30;73.20;;;;;;5049191;28;20047;-66
2021/09/29 00:21:43;;;;;;;8.98;6.55;;;16.30;73.40;;;;;;5052682;28;20032;-67
2021/09/29 00:24:09;;;;;;;8.10;5.88;;;16.30;73.70;;;;;;5049300;28;20059;-67
2021/09/29 00:26:34;;;;;;;10.05;6.75;;;16.30;73.70;;;;;;5053151;28;20037;-66
2021/09/29 00:29:00;;;;;;;8.10;6.32;;;16.40;73.90;;;;;;5053489;28;20036;-67
2021/09/29 00:34:06;;;;;;;6.72;5.80;;;16.40;74.20;;;;;;5054120;28;20041;-66
2021/09/29 00:36:32;;;;;;;;;;;16.40;74.20;;;;;;5054980;28;20036;-67
2021/09/29 00:38:58;;;;;;;7.05;5.90;;;16.40;74.30;;;;;;5053668;28;19921;-66
2021/09/29 00:41:24;;;;;;;6.75;6.00;;;16.50;73.70;;;;;;5051463;28;20091;-66
2021/09/29 00:43:49;;;;;;;8.15;6.50;;;16.50;73.90;;;;;;5053408;28;20565;-66
2021/09/29 00:46:15;;;;;;;15.43;6.00;;;16.50;74.00;;;;;;5050058;28;20892;-67
2021/09/29 00:48:41;;;;;;;7.22;6.50;;;16.50;73.90;;;;;;5051414;28;20045;-66
2021/09/29 00:51:09;;;;;;;7.90;6.60;;;16.50;74.00;;;;;;5050327;28;20116;-66
2021/09/29 00:53:35;;;;;;;7.32;6.55;;;16.50;74.40;;;;;;5046678;28;20514;-66
2021/09/29 00:56:00;;;;;;;8.80;6.68;;;16.50;74.10;;;;;;5048532;28;20124;-66
2021/09/29 00:58:26;;;;;;;8.48;7.45;;;16.50;74.30;;;;;;5049226;28;20043;-66
2021/09/29 01:00:51;;;;;;;9.38;6.57;;;16.50;74.60;;;;;;5046528;28;20047;-66
2021/09/29 01:03:17;;;;;;;8.25;6.60;;;16.50;74.60;;;;;;5053281;28;20033;-65
2021/09/29 01:05:45;;;;;;;7.82;6.28;;;16.50;74.60;;;;;;5048639;28;20063;-66
2021/09/29 01:08:18;;;;;;;7.07;6.28;;;16.40;74.90;;;;;;5049667;28;20029;-65
2021/09/29 01:10:50;;;;;;;7.38;6.68;;;16.40;75.20;;;;;;5046266;28;20055;-66
2021/09/29 01:13:38;;;;;;;9.00;7.10;;;16.40;75.40;;;;;;5053651;28;20102;-65
2021/09/29 01:16:07;;;;;;;8.13;6.68;;;16.40;75.10;;;;;;5050910;28;20086;-66
2021/09/29 01:18:36;;;;;;;9.65;7.13;;;16.40;75.10;;;;;;5052195;28;20116;-66
2021/09/29 01:21:09;;;;;;;8.52;7.43;;;16.40;75.30;;;;;;5052450;28;20036;-66
2021/09/29 01:24:00;;;;;;;9.70;7.38;;;16.40;75.80;;;;;;5049583;28;20037;-66
2021/09/29 01:26:32;;;;;;;9.25;7.43;;;16.40;75.80;;;;;;5049294;28;20029;-66
2021/09/29 01:29:06;;;;;;;9.18;7.28;;;16.30;75.60;;;;;;5049252;28;20539;-65
2021/09/29 01:31:35;;;;;;;9.02;7.45;;;16.30;76.00;;;;;;5048320;28;20679;-65
2021/09/29 01:34:02;;;;;;;9.30;7.15;;;16.30;75.70;;;;;;5052311;28;20063;-66
2021/09/29 01:36:28;;;;;;;11.93;7.55;;;16.30;75.80;;;;;;5053421;28;20058;-66
2021/09/29 01:38:56;;;;;;;8.05;6.93;;;16.30;76.00;;;;;;5052732;28;20803;-66
2021/09/29 01:41:30;;;;;;;9.95;7.45;;;16.30;76.10;;;;;;5054360;28;20104;-65
2021/09/29 01:43:58;;;;;;;9.15;7.93;;;16.30;76.50;;;;;;5055112;28;20032;-66
2021/09/29 01:46:28;;;;;;;10.73;8.20;;;16.30;76.30;;;;;;5055431;28;20419;-66
2021/09/29 01:49:26;;;;;;;9.85;7.93;;;16.30;76.60;;;;;;5053849;28;20123;-66
2021/09/29 01:51:53;;;;;;;9.63;7.53;;;16.30;77.20;;;;;;5050426;28;20055;-65
2021/09/29 01:54:24;;;;;;;12.00;8.30;;;16.30;76.40;;;;;;5052734;28;20407;-66
2021/09/29 01:56:51;;;;;;;11.55;8.15;;;16.30;76.80;;;;;;5035518;28;20032;-66
2021/09/29 01:59:17;;;;;;;9.85;8.13;;;16.30;76.50;;;;;;5035532;28;20030;-65
2021/09/29 02:01:43;;;;;;;11.43;8.65;;;16.30;76.40;;;;;;5033523;28;20424;-65
2021/09/29 02:04:12;;;;;;;11.63;8.95;;;16.30;76.40;;;;;;5027059;28;20052;-66
2021/09/29 02:06:49;;;;;;;10.85;8.80;;;16.30;76.70;;;;;;5030411;28;20045;-66
2021/09/29 02:09:16;;;;;;;11.88;9.32;;;16.30;77.00;;;;;;5030442;28;20224;-66
2021/09/29 02:11:42;;;;;;;11.00;8.80;;;16.30;76.50;;;;;;5033941;28;20033;-66
2021/09/29 02:14:08;;;;;;;11.43;9.40;;;16.20;76.50;;;;;;5034080;28;20044;-65
2021/09/29 02:16:34;;;;;;;11.15;9.02;;;16.20;76.50;;;;;;5033008;28;20044;-66
2021/09/29 02:19:00;;;;;;;12.35;8.85;;;16.20;76.60;;;;;;5030724;28;20037;-66
2021/09/29 02:21:25;;;;;;;11.45;9.40;;;16.20;76.60;;;;;;5035210;28;20104;-65
2021/09/29 02:23:51;;;;;;;10.75;8.57;;;16.20;76.70;;;;;;5029955;28;20041;-66
2021/09/29 02:26:16;;;;;;;10.80;8.68;;;16.20;76.80;;;;;;5034910;28;20112;-65
2021/09/29 02:28:42;;;;;;;10.55;8.90;;;16.20;76.80;;;;;;5031926;28;20037;-65
2021/09/29 02:31:08;;;;;;;12.82;9.48;;;16.20;77.00;;;;;;5032186;28;20049;-65
2021/09/29 02:33:33;;;;;;;12.95;9.77;;;16.10;77.00;;;;;;5032820;28;20052;-65
2021/09/29 02:35:59;;;;;;;12.70;9.30;;;16.10;77.10;;;;;;5035003;28;20036;-66
2021/09/29 02:38:25;;;;;;;10.95;8.85;;;16.10;77.20;;;;;;5032447;28;20403;-65
2021/09/29 02:40:50;;;;;;;9.75;8.75;;;16.10;77.30;;;;;;5026948;28;20408;-66
2021/09/29 02:43:16;;;;;;;9.93;8.70;;;16.10;77.50;;;;;;5035603;28;20044;-65
2021/09/29 02:45:44;;;;;;;12.38;8.85;;;16.10;77.60;;;;;;5025085;28;20492;-65
2021/09/29 02:48:10;;;;;;;10.38;8.27;;;16.10;77.70;;;;;;5035151;28;20041;-65
2021/09/29 02:50:36;;;;;;;10.43;8.63;;;16.10;77.60;;;;;;5032787;28;20056;-66
2021/09/29 02:53:02;;;;;;;13.45;8.80;;;16.10;77.70;;;;;;5036328;28;20107;-66
2021/09/29 02:55:27;;;;;;;12.00;9.45;;;16.10;77.70;;;;;;5028728;28;20040;-65
2021/09/29 02:57:53;;;;;;;10.20;8.90;;;16.10;77.80;;;;;;5033281;28;20036;-66
2021/09/29 03:00:19;;;;;;;9.35;8.35;;;16.10;77.80;;;;;;5029644;28;20025;-66
2021/09/29 03:02:45;;;;;;;11.95;9.13;;;16.10;77.70;;;;;;5032155;28;20037;-66
2021/09/29 03:05:10;;;;;;;9.70;8.45;;;16.10;77.70;;;;;;5035057;28;20036;-65
2021/09/29 03:07:36;;;;;;;11.90;8.25;;;16.00;77.70;;;;;;5033640;28;20029;-66
2021/09/29 03:10:04;;;;;;;9.73;8.18;;;16.00;77.80;;;;;;5032155;28;20518;-66
2021/09/29 03:12:29;;;;;;;10.32;8.70;;;16.00;77.90;;;;;;5024841;28;20038;-65
2021/09/29 03:14:55;;;;;;;10.70;9.30;;;16.00;77.90;;;;;;5029378;28;20735;-65
2021/09/29 03:17:21;;;;;;;9.45;8.23;;;16.00;77.90;;;;;;5026188;28;20077;-66
2021/09/29 03:19:47;;;;;;;9.30;8.32;;;16.00;78.00;;;;;;5026964;28;20085;-66
2021/09/29 03:22:13;;;;;;;10.98;8.57;;;15.90;77.80;;;;;;5043851;28;20103;-66
2021/09/29 03:24:40;;;;;;;9.73;8.38;;;15.90;77.70;;;;;;5044833;28;20037;-66
2021/09/29 03:27:06;;;;;;;9.98;8.65;;;15.90;77.60;;;;;;5045920;28;20037;-66
2021/09/29 03:29:31;;;;;;;9.18;8.25;;;15.90;77.70;;;;;;5046935;28;20175;-65
2021/09/29 03:31:57;;;;;;;10.13;8.10;;;15.90;78.50;;;;;;5045033;28;20978;-65
2021/09/29 03:34:23;;;;;;;9.80;8.70;;;15.90;77.70;;;;;;5045402;28;20055;-65
2021/09/29 03:36:49;;;;;;;10.50;8.65;;;15.90;77.70;;;;;;5046798;28;20025;-65
2021/09/29 03:39:14;;;;;;;10.02;8.65;;;15.90;77.50;;;;;;5048351;28;20028;-65
2021/09/29 03:41:40;;;;;;;10.88;8.40;;;15.80;77.30;;;;;;5045394;28;20551;-66
2021/09/29 03:44:06;;;;;;;10.52;8.27;;;15.80;77.20;;;;;;5044435;28;20036;-66
2021/09/29 03:46:31;;;;;;;10.88;9.13;;;15.70;77.20;;;;;;5044156;28;20028;-65
2021/09/29 03:48:57;;;;;;;12.07;8.95;;;15.70;77.50;;;;;;5048857;28;20519;-66
2021/09/29 03:51:23;;;;;;;10.93;8.82;;;15.60;77.70;;;;;;5045724;28;20439;-65
2021/09/29 03:53:48;;;;;;;9.75;7.88;;;15.60;77.90;;;;;;5049423;28;20032;-65
2021/09/29 03:56:14;;;;;;;10.57;8.70;;;15.50;77.90;;;;;;5044395;28;20554;-65
2021/09/29 03:58:40;;;;;;;11.82;8.32;;;15.50;77.90;;;;;;5045394;28;20074;-66
2021/09/29 04:01:05;;;;;;;11.18;8.75;;;15.40;78.10;;;;;;5050620;28;20033;-65
2021/09/29 04:03:31;;;;;;;10.07;8.52;;;15.40;78.10;;;;;;5045710;28;20539;-66
2021/09/29 04:05:57;;;;;;;9.63;8.18;;;15.30;78.00;;;;;;5044125;28;20040;-66
2021/09/29 04:08:22;;;;;;;9.07;8.13;;;15.30;77.90;;;;;;5053821;28;20072;-66
2021/09/29 04:10:48;;;;;;;9.35;8.35;;;15.30;77.90;;;;;;5044419;28;20037;-62
2021/09/29 04:13:13;;;;;;;10.77;8.10;;;15.30;77.90;;;;;;5050324;28;20063;-65
2021/09/29 04:15:39;;;;;;;11.80;8.95;;;15.30;78.20;;;;;;5048947;28;20492;-66
2021/09/29 04:18:05;;;;;;;10.70;8.55;;;15.30;78.60;;;;;;5047426;28;20025;-66
2021/09/29 04:20:31;;;;;;;10.90;9.18;;;15.30;78.80;;;;;;5050505;28;20082;-65
2021/09/29 04:22:57;;;;;;;48.78;31.33;;;15.30;79.10;;;;;;5060839;28;20138;-66
2021/09/29 04:25:23;;;;;;;15.43;11.57;;;15.30;79.30;;;;;;5052130;28;20086;-66
2021/09/29 04:27:49;;;;;;;12.70;10.30;;;15.30;79.60;;;;;;5047848;28;21555;-65
2021/09/29 04:30:15;;;;;;;11.13;8.95;;;15.30;80.00;;;;;;5043451;28;20033;-66
2021/09/29 04:32:42;;;;;;;12.38;10.00;;;15.20;79.90;;;;;;5042839;28;20041;-66
2021/09/29 04:35:09;;;;;;;13.32;9.68;;;15.10;80.00;;;;;;5045523;28;20044;-66
2021/09/29 04:37:34;;;;;;;13.25;9.55;;;15.10;80.10;;;;;;5050345;28;20082;-66
2021/09/29 04:40:00;;;;;;;12.13;10.15;;;15.00;80.10;;;;;;5046756;28;20033;-66
2021/09/29 04:42:26;;;;;;;10.73;9.30;;;15.00;80.30;;;;;;5050745;28;20492;-66
2021/09/29 04:44:52;;;;;;;11.75;8.95;;;15.00;80.20;;;;;;5049143;28;20040;-66
2021/09/29 04:47:17;;;;;;;11.63;9.63;;;15.00;80.00;;;;;;5053376;28;20040;-66
2021/09/29 04:49:43;;;;;;;10.65;9.25;;;15.00;80.00;;;;;;5056636;28;20036;-66
2021/09/29 04:52:09;;;;;;;11.00;9.05;;;15.00;79.90;;;;;;5055705;28;20044;-67
2021/09/29 04:54:35;;;;;;;10.43;8.70;;;15.00;79.90;;;;;;5055728;28;20036;-66
2021/09/29 04:57:00;;;;;;;11.85;9.27;;;15.00;79.90;;;;;;5055298;28;20033;-67
2021/09/29 04:59:26;;;;;;;11.45;9.45;;;15.00;80.00;;;;;;5053934;28;20559;-66
2021/09/29 05:01:53;;;;;;;9.52;7.95;;;15.00;80.10;;;;;;5053829;28;20114;-65
2021/09/29 05:04:23;;;;;;;11.60;9.07;;;15.00;80.10;;;;;;5055750;28;20120;-67
2021/09/29 05:06:51;;;;;;;11.23;9.43;;;15.00;80.30;;;;;;5035509;28;20070;-67
2021/09/29 05:09:16;;;;;;;12.18;9.57;;;15.00;80.40;;;;;;5035769;28;20044;-66
2021/09/29 05:11:50;;;;;;;12.32;9.68;;;15.00;80.60;;;;;;5034208;28;20025;-67
2021/09/29 05:14:16;;;;;;;13.18;9.65;;;15.00;81.10;;;;;;5038145;28;20460;-65
2021/09/29 05:16:42;;;;;;;12.63;10.35;;;15.10;80.70;;;;;;5036350;28;20025;-66
2021/09/29 05:19:07;;;;;;;11.93;9.25;;;15.10;80.80;;;;;;5036832;28;20124;-66
2021/09/29 05:21:33;;;;;;;12.30;9.00;;;15.10;80.80;;;;;;5040033;28;20037;-66
2021/09/29 05:23:59;;;;;;;11.63;8.73;;;15.10;81.60;;;;;;5036677;28;20051;-66
2021/09/29 05:26:25;;;;;;;10.60;8.30;;;15.10;80.80;;;;;;5037008;28;20531;-66
2021/09/29 05:28:51;;;;;;;8.50;7.57;;;15.10;80.70;;;;;;5038311;28;20037;-66
2021/09/29 05:31:18;;;;;;;9.73;7.15;;;15.10;80.70;;;;;;5032796;28;20041;-66
2021/09/29 05:33:44;;;;;;;8.75;7.22;;;15.20;80.60;;;;;;5036667;28;20052;-66
2021/09/29 05:36:10;;;;;;;7.40;6.28;;;15.10;80.50;;;;;;5036477;28;20029;-66
2021/09/29 05:38:35;;;;;;;8.57;6.13;;;15.20;80.30;;;;;;5034852;28;20455;-66
2021/09/29 05:41:01;;;;;;;6.80;5.68;;;15.20;80.10;;;;;;5033513;28;20519;-66
2021/09/29 05:43:27;;;;;;;7.30;5.75;;;15.20;80.10;;;;;;5030056;28;20514;-64
2021/09/29 05:45:53;;;;;;;6.97;5.40;;;15.20;79.90;;;;;;5032400;28;20076;-66
2021/09/29 05:48:19;;;;;;;5.78;5.07;;;15.20;80.60;;;;;;5033978;28;20036;-67
2021/09/29 05:50:45;;;;;;;7.75;5.13;;;15.20;79.60;;;;;;5036010;28;20083;-66
2021/09/29 05:53:10;;;;;;;4.70;4.20;;;15.20;79.50;;;;;;5035864;28;20061;-66
2021/09/29 05:55:36;;;;;;;5.43;4.47;;;15.20;79.40;;;;;;5034753;28;20060;-66
2021/09/29 05:58:02;;;;;;;5.00;4.50;;;15.20;79.30;;;;;;5036135;28;20124;-67
2021/09/29 06:00:27;;;;;;;5.82;4.50;;;15.20;79.20;;;;;;5034416;28;20030;-66
2021/09/29 06:02:53;;;;;;;4.32;3.92;;;15.20;79.10;;;;;;5036969;28;20032;-66
2021/09/29 06:05:21;;;;;;;5.72;4.05;;;15.20;78.90;;;;;;5039184;28;20040;-66
2021/09/29 06:07:48;;;;;;;5.95;3.40;;;15.20;78.80;;;;;;5035507;28;20029;-66
2021/09/29 06:10:14;;;;;;;3.83;3.35;;;15.20;78.60;;;;;;5034395;28;20567;-66
2021/09/29 06:12:40;;;;;;;3.85;2.85;;;15.20;78.60;;;;;;5036318;28;20056;-66
2021/09/29 06:15:07;;;;;;;3.22;2.88;;;15.20;79.30;;;;;;5036620;28;20496;-66
2021/09/29 06:17:43;;;;;;;4.63;3.10;;;15.20;78.40;;;;;;5035859;28;20037;-66
2021/09/29 06:20:09;;;;;;;3.22;2.80;;;15.20;78.20;;;;;;5036342;28;20037;-66
2021/09/29 06:22:37;;;;;;;3.00;2.72;;;15.20;78.20;;;;;;5032462;28;20382;-66
2021/09/29 06:25:03;;;;;;;4.20;2.38;;;15.20;78.30;;;;;;5034664;28;20033;-66
2021/09/29 06:27:28;;;;;;;2.50;2.30;;;15.20;78.20;;;;;;5037421;28;20037;-66
2021/09/29 06:29:54;;;;;;;3.08;2.40;;;15.20;78.20;;;;;;5037174;28;20544;-66
2021/09/29 06:32:19;;;;;;;4.03;2.50;;;15.20;78.10;;;;;;5031590;28;20128;-66
2021/09/29 06:34:45;;;;;;;3.70;2.40;;;15.20;78.10;;;;;;5034692;28;20519;-66
2021/09/29 06:37:11;;;;;;;4.57;2.60;;;15.20;78.00;;;;;;5037716;28;20044;-66
2021/09/29 06:39:36;;;;;;;3.28;2.20;;;15.20;78.10;;;;;;5032247;28;20044;-66
2021/09/29 06:42:02;;;;;;;4.32;2.00;;;15.20;78.10;;;;;;5038890;28;20103;-66
2021/09/29 06:44:28;;;;;;;6.32;2.35;;;15.20;78.10;;;;;;5035178;28;20033;-66
2021/09/29 06:46:54;;;;;;;3.38;1.90;;;15.20;78.20;;;;;;5034883;28;20025;-66
2021/09/29 06:49:20;;;;;;;2.60;1.73;;;15.20;78.00;;;;;;5034499;28;20464;-66
2021/09/29 06:51:46;;;;;;;3.13;1.73;;;15.30;77.80;;;;;;5032531;28;20025;-65
2021/09/29 06:54:12;;;;;;;2.80;1.60;;;15.20;77.50;;;;;;5044611;28;20037;-66
2021/09/29 06:56:37;;;;;;;1.65;1.30;;;15.30;78.30;;;;;;5051131;28;20127;-66
2021/09/29 06:59:03;;;;;;;2.70;1.52;;;15.30;77.30;;;;;;5053229;28;20032;-66
2021/09/29 07:01:29;;;;;;;1.83;1.55;;;15.30;77.50;;;;;;5052119;28;20028;-66
2021/09/29 07:03:54;;;;;;;4.32;1.65;;;15.30;77.30;;;;;;5053038;28;20102;-66
2021/09/29 07:06:20;;;;;;;2.13;1.50;;;15.40;77.30;;;;;;5057035;28;20119;-66
2021/09/29 07:08:46;;;;;;;2.00;1.60;;;15.40;77.20;;;;;;5054063;28;20047;-67
2021/09/29 07:11:12;;;;;;;1.90;1.50;;;15.50;77.30;;;;;;5052537;28;20538;-66
2021/09/29 07:13:38;;;;;;;2.78;1.40;;;15.50;77.30;;;;;;5055115;28;20060;-65
2021/09/29 07:16:04;;;;;;;3.50;1.60;;;15.60;77.30;;;;;;5054561;28;20108;-66
2021/09/29 07:18:31;;;;;;;3.03;1.67;;;15.60;77.20;;;;;;5054581;28;20028;-66
2021/09/29 07:20:58;;;;;;;1.92;1.58;;;15.60;77.00;;;;;;5054677;28;20029;-66
2021/09/29 07:23:24;;;;;;;1.70;1.38;;;15.60;77.00;;;;;;5055836;28;20037;-66
2021/09/29 07:25:50;;;;;;;3.67;1.70;;;15.60;77.00;;;;;;5057502;28;20025;-67
2021/09/29 07:28:15;;;;;;;3.20;1.52;;;15.70;77.20;;;;;;5055614;28;20447;-66
2021/09/29 07:30:42;;;;;;;3.03;1.80;;;15.70;77.20;;;;;;5054929;28;20036;-65
2021/09/29 07:33:08;;;;;;;2.67;1.55;;;15.70;77.00;;;;;;5051659;28;20483;-67
2021/09/29 07:35:34;;;;;;;3.80;1.38;;;15.70;76.80;;;;;;5054137;28;20048;-66
2021/09/29 07:38:01;;;;;;;4.63;1.58;;;15.80;76.80;;;;;;5055437;28;20020;-66
2021/09/29 07:40:28;;;;;;;1.70;1.60;;;15.70;76.90;;;;;;5055612;28;20040;-66
2021/09/29 07:42:55;;;;;;;2.15;1.52;;;15.80;76.90;;;;;;5053769;28;20040;-66
2021/09/29 07:45:21;;;;;;;5.25;1.58;;;15.80;76.70;;;;;;5055529;28;20036;-66
2021/09/29 07:47:46;;;;;;;3.65;1.40;;;15.80;76.50;;;;;;5056717;28;20140;-66
2021/09/29 07:50:15;;;;;;;3.88;1.13;;;15.90;76.50;;;;;;5052059;28;20120;-66
2021/09/29 07:52:41;;;;;;;3.05;1.30;;;15.90;76.40;;;;;;5048810;28;20037;-66
2021/09/29 07:55:08;;;;;;;3.03;1.20;;;15.90;76.70;;;;;;5053894;28;20032;-66
2021/09/29 07:57:33;;;;;;;1.30;1.05;;;15.90;76.60;;;;;;5048929;28;20029;-67
2021/09/29 07:59:59;;;;;;;2.45;1.30;;;16.00;76.20;;;;;;5055144;28;20032;-68
2021/09/29 08:02:26;;;;;;;3.35;1.10;;;16.10;75.80;;;;;;5054647;28;20037;-67
2021/09/29 08:04:52;;;;;;;2.55;1.00;;;16.10;75.60;;;;;;5053736;28;20029;-67
2021/09/29 08:07:17;;;;;;;2.08;1.00;;;16.20;76.50;;;;;;5054941;28;20033;-67
2021/09/29 08:09:43;;;;;;;1.30;1.00;;;16.20;75.30;;;;;;5050133;28;20033;-67
2021/09/29 08:12:09;;;;;;;2.00;1.20;;;16.20;75.30;;;;;;5047512;28;20120;-67
2021/09/29 08:14:39;;;;;;;1.70;1.00;;;16.30;74.80;;;;;;5053375;28;20037;-66
2021/09/29 08:17:06;;;;;;;2.10;1.10;;;16.30;75.00;;;;;;5050434;28;20021;-67
2021/09/29 08:19:32;;;;;;;5.15;1.13;;;16.30;75.00;;;;;;5053667;28;20067;-68
2021/09/29 08:21:58;;;;;;;2.83;1.05;;;16.40;75.10;;;;;;5055055;28;20029;-67
2021/09/29 08:24:34;;;;;;;3.20;0.80;;;16.40;74.90;;;;;;5054894;28;20045;-68
2021/09/29 08:27:04;;;;;;;3.13;0.73;;;16.50;74.70;;;;;;5055315;28;20078;-67
2021/09/29 08:32:39;;;;;;;1.23;0.70;;;16.60;74.20;;;;;;5053119;28;20520;-67
2021/09/29 08:40:45;;;;;;;2.25;0.90;;;16.80;73.10;;;;;;5054097;28;20508;-67
2021/09/29 08:43:07;;;;;;;1.48;0.60;;;16.80;72.50;;;;;;5052289;28;20033;-67
2021/09/29 08:48:22;;;;;;;2.53;0.68;;;17.00;72.50;;;;;;5059852;28;20037;-67
2021/09/29 09:18:17;;;;;;;3.13;1.00;;;17.60;68.50;;;;;;5058905;28;20036;-67
2021/09/29 09:20:50;;;;;;;3.25;0.80;;;17.70;69.00;;;;;;5056158;28;20283;-68
2021/09/29 09:23:15;;;;;;;1.70;0.70;;;17.70;69.20;;;;;;5057270;28;20064;-67
2021/09/29 09:25:43;;;;;;;1.55;0.60;;;17.80;69.20;;;;;;5054419;28;20036;-67
2021/09/29 09:28:21;;;;;;;1.60;0.60;;;17.90;68.70;;;;;;5056233;28;20641;-67
2021/09/29 09:30:46;;;;;;;1.98;0.70;;;17.90;68.30;;;;;;5055691;28;20450;-68
2021/09/29 09:33:25;;;;;;;4.80;0.88;;;18.00;67.40;;;;;;5055918;28;20045;-67
2021/09/29 09:35:51;;;;;;;2.58;0.60;;;18.10;66.80;;;;;;5058143;28;20057;-67
2021/09/29 09:38:22;;;;;;;1.73;0.60;;;18.10;67.60;;;;;;5071828;28;20495;-67
2021/09/29 09:40:56;;;;;;;1.70;0.70;;;18.20;67.00;;;;;;5072213;28;20119;-67
2021/09/29 09:43:30;;;;;;;3.08;0.55;;;18.30;65.20;;;;;;5056349;28;20041;-67
2021/09/29 09:45:57;;;;;;;2.27;0.80;;;18.30;66.20;;;;;;5056857;28;20029;-67
2021/09/29 09:48:28;;;;;;;2.28;0.60;;;18.40;66.70;;;;;;5058030;28;20063;-67
2021/09/29 09:51:02;;;;;;;1.85;0.60;;;18.50;66.00;;;;;;5036055;28;20029;-67
2021/09/29 09:53:28;;;;;;;4.40;0.60;;;18.50;65.30;;;;;;5038355;28;20252;-67
2021/09/29 09:55:54;;;;;;;1.77;0.63;;;18.60;67.00;;;;;;5036147;28;20044;-67
2021/09/29 09:58:19;;;;;;;2.85;0.70;;;18.60;65.90;;;;;;5038538;28;20032;-67
2021/09/29 10:00:45;;;;;;;0.70;0.60;;;18.70;65.70;;;;;;5035658;28;20033;-67
2021/09/29 10:03:11;;;;;;;1.92;0.80;;;18.70;65.10;;;;;;5036553;28;20111;-67
2021/09/29 10:05:41;;;;;;;1.10;0.70;;;18.70;65.00;;;;;;5039271;28;20041;-67
2021/09/29 10:08:09;;;;;;;1.15;0.70;;;18.70;64.50;;;;;;5036546;28;20041;-67
2021/09/29 10:27:53;;;;;;;1.95;0.47;;;19.00;63.80;;;;;;5036582;28;20103;-67
2021/09/29 10:30:25;;;;;;;2.08;0.57;;;19.10;62.60;;;;;;5035899;28;20059;-67
2021/09/29 10:32:57;;;;;;;1.58;0.63;;;19.10;62.00;;;;;;5035372;28;20349;-67
2021/09/29 10:43:50;;;;;;;1.88;0.70;;;19.40;61.40;;;;;;5036011;28;20393;-67
2021/09/29 11:30:41;;;;;;;1.25;0.55;;;20.10;57.50;;;;;;5054074;28;20032;-68
2021/09/29 11:33:18;;;;;;;3.05;0.70;;;20.20;57.40;;;;;;5054165;28;20040;-67
2021/09/29 12:11:05;;;;;;;2.15;0.40;;;20.30;54.90;;;;;;5049540;28;20499;-67
2021/09/29 12:13:45;;;;;;;1.65;0.40;;;20.20;54.80;;;;;;5053684;28;20060;-67
2021/09/29 12:16:23;;;;;;;1.55;0.30;;;20.20;54.60;;;;;;5054943;28;20392;-68
2021/09/29 12:19:08;;;;;;;3.67;0.50;;;20.30;55.20;;;;;;5030754;28;20512;-67
2021/09/29 12:21:42;;;;;;;2.15;0.35;;;20.30;54.80;;;;;;5032594;28;20034;-67
2021/09/29 12:24:12;;;;;;;5.65;0.73;;;20.40;55.70;;;;;;5034522;28;20033;-67
2021/09/29 12:26:50;;;;;;;1.95;0.40;;;20.40;55.60;;;;;;5034948;28;20064;-67
2021/09/29 12:29:21;;;;;;;0.77;0.38;;;20.50;54.30;;;;;;5033229;28;20175;-67
2021/09/29 12:32:01;;;;;;;1.88;0.20;;;20.50;54.50;;;;;;5034829;28;20044;-67
2021/09/29 12:37:12;;;;;;;2.83;0.40;;;20.50;54.20;;;;;;5035192;28;20041;-67
2021/09/29 12:39:38;;;;;;;1.48;0.45;;;20.50;54.30;;;;;;5030999;28;20040;-67
2021/09/29 12:42:04;;;;;;;2.45;0.65;;;20.40;54.40;;;;;;5035324;28;20036;-67
2021/09/29 12:44:30;;;;;;;1.65;0.50;;;20.40;54.50;;;;;;5031560;28;20604;-67
2021/09/29 12:47:59;;;;;;;1.83;0.40;;;20.30;54.60;;;;;;5030970;28;20032;-67
2021/09/29 12:49:54;;;;;;;1.80;0.40;;;20.30;54.60;;;;;;5021662;28;20037;-67
2021/09/29 12:52:28;;;;;;;2.00;0.40;;;20.30;54.00;;;;;;5030017;28;20125;-67
2021/09/29 12:54:55;;;;;;;0.88;0.45;;;20.20;54.20;;;;;;5032981;28;20051;-67
2021/09/29 12:57:23;;;;;;;3.08;0.50;;;20.20;54.60;;;;;;5033047;28;20065;-67
2021/09/29 12:59:49;;;;;;;3.10;0.40;;;20.20;54.40;;;;;;5034596;28;20037;-67
2021/09/29 13:02:14;;;;;;;1.70;0.47;;;20.30;54.60;;;;;;5034087;28;20112;-67
2021/09/29 13:04:40;;;;;;;1.05;0.43;;;20.30;54.40;;;;;;5031370;28;20071;-68
2021/09/29 13:07:05;;;;;;;1.60;0.30;;;20.30;54.60;;;;;;5032724;28;20045;-66
2021/09/29 13:09:31;;;;;;;2.17;0.65;;;20.30;54.90;;;;;;5032587;28;20037;-67
2021/09/29 13:11:57;;;;;;;1.35;0.40;;;20.30;54.50;;;;;;5030593;28;20412;-67
2021/09/29 13:14:22;;;;;;;1.05;0.57;;;20.40;54.70;;;;;;5029703;28;20048;-67
2021/09/29 13:16:48;;;;;;;3.15;0.50;;;20.40;54.60;;;;;;5033251;28;20069;-67
2021/09/29 13:19:23;;;;;;;2.60;0.60;;;20.40;54.60;;;;;;5034539;28;20111;-67
2021/09/29 13:21:53;;;;;;;1.58;0.32;;;20.40;54.70;;;;;;5033186;28;20056;-67
2021/09/29 13:35:12;;;;;;;1.65;0.40;;;20.60;54.70;;;;;;5032371;28;20060;-67
2021/09/29 13:37:46;;;;;;;2.60;0.50;;;20.60;54.60;;;;;;5035270;28;20580;-67
2021/09/29 13:40:12;;;;;;;5.25;0.60;;;20.60;54.40;;;;;;5035721;28;20128;-67
2021/09/29 13:42:38;;;;;;;4.72;0.55;;;20.60;54.10;;;;;;5032164;28;20025;-67
2021/09/29 13:45:06;;;;;;;2.60;0.50;;;20.60;54.00;;;;;;5035758;28;20131;-67
2021/09/29 13:47:32;;;;;;;1.35;0.50;;;20.60;54.20;;;;;;5039185;28;20029;-67
2021/09/29 13:49:58;;;;;;;3.60;0.60;;;20.60;54.20;;;;;;5036045;28;20523;-66
2021/09/29 13:52:25;;;;;;;2.22;0.50;;;20.60;54.40;;;;;;5037043;28;20124;-68
2021/09/29 13:54:54;;;;;;;1.05;0.30;;;20.60;54.40;;;;;;5037507;28;20041;-67
2021/09/29 13:57:27;;;;;;;2.38;0.50;;;20.60;54.70;;;;;;5035232;28;20129;-67
2021/09/29 14:00:11;;;;;;;2.38;0.52;;;20.60;54.60;;;;;;5035192;28;20479;-67
2021/09/29 14:29:56;;;;;;;1.80;0.43;;;20.80;53.30;;;;;;5034008;28;20075;-67
2021/09/29 14:32:27;;;;;;;2.97;0.52;;;20.80;53.50;;;;;;5021977;28;20113;-67
2021/09/29 14:34:53;;;;;;;1.65;0.60;;;20.80;53.40;;;;;;5032990;28;20093;-66
2021/09/29 14:37:19;;;;;;;1.77;0.40;;;20.80;53.70;;;;;;5057328;28;20326;-67
2021/09/29 14:39:45;;;;;;;2.40;0.50;;;20.80;53.50;;;;;;5056037;28;20087;-67
2021/09/29 14:42:12;;;;;;;2.15;0.50;;;20.80;52.90;;;;;;5052943;28;20033;-67
2021/09/29 14:44:38;;;;;;;0.75;0.50;;;20.80;53.30;;;;;;5055084;28;20028;-67
2021/09/29 14:47:11;;;;;;;1.45;0.43;;;20.80;53.90;;;;;;5052769;28;20051;-67
2021/09/29 14:49:38;;;;;;;0.85;0.40;;;20.80;53.50;;;;;;5053736;28;20037;-67
2021/09/29 14:52:04;;;;;;;1.92;0.55;;;20.80;53.60;;;;;;5056654;28;20047;-67
2021/09/29 14:54:30;;;;;;;3.65;0.70;;;20.80;53.60;;;;;;5053741;28;20367;-67
2021/09/29 14:56:57;;;;;;;4.93;0.60;;;20.80;53.60;;;;;;5058197;28;20503;-67
2021/09/29 14:59:22;;;;;;;0.95;0.40;;;20.80;53.30;;;;;;5056020;28;20041;-67
2021/09/29 15:01:48;;;;;;;2.70;0.43;;;20.80;53.50;;;;;;5054801;28;20029;-67
2021/09/29 15:04:13;;;;;;;1.52;0.32;;;20.80;53.50;;;;;;5054238;28;20041;-66
2021/09/29 15:06:39;;;;;;;3.15;0.50;;;20.80;53.00;;;;;;5057147;28;20486;-67
2021/09/29 15:09:05;;;;;;;3.58;0.60;;;20.80;53.00;;;;;;5055682;28;20036;-67
2021/09/29 15:11:31;;;;;;;3.67;0.60;;;20.70;53.40;;;;;;5050748;28;20048;-67
2021/09/29 15:14:04;;;;;;;1.95;0.40;;;20.70;54.90;;;;;;5055833;28;20041;-66
2021/09/29 15:16:33;;;;;;;1.30;0.32;;;20.60;55.60;;;;;;5056406;28;20040;-66
2021/09/29 15:19:27;;;;;;;1.73;0.22;;;20.50;56.00;;;;;;5054642;28;20025;-66
2021/09/29 15:32:23;;;;;;;1.05;0.70;;;20.00;57.40;;;;;;5053811;28;20236;-66
2021/09/29 15:48:39;;;;;;;1.35;0.40;;;19.40;58.80;;;;;;5032223;28;20063;-67
2021/09/29 15:53:42;;;;;;;1.75;0.50;;;19.20;60.00;;;;;;5033429;28;20041;-65
2021/09/29 15:56:13;;;;;;;1.20;0.30;;;19.10;61.50;;;;;;5033511;28;20035;-66
2021/09/29 15:59:00;;;;;;;0.80;0.10;;;19.00;61.50;;;;;;5035646;28;20137;-65
2021/09/29 16:01:47;;;;;;;1.58;0.40;;;18.80;61.90;;;;;;5034617;28;20032;-66
2021/09/29 16:07:08;;;;;;;1.20;0.30;;;18.20;63.80;;;;;;5035812;28;20037;-66
2021/09/29 16:23:01;;;;;;;1.58;0.28;;;17.00;69.20;;;;;;5033369;28;20037;-65
2021/09/29 16:31:32;;;;;;;0.10;0.10;;;16.40;67.60;;;;;;5011167;28;20469;-65
2021/09/29 16:36:27;;;;;;;0.50;0.10;;;15.90;67.80;;;;;;5034479;28;20037;-65
2021/09/29 16:38:52;;;;;;;0.28;0.00;;;15.70;68.20;;;;;;5035144;28;20075;-65
2021/09/29 16:41:20;;;;;;;0.00;0.00;;;15.50;68.30;;;;;;5035379;28;20041;-66
2021/09/29 16:43:47;;;;;;;0.00;0.00;;;15.30;69.20;;;;;;5033685;28;20392;-65
2021/09/29 16:46:15;;;;;;;0.82;0.10;;;15.10;69.10;;;;;;5033008;28;20049;-65
2021/09/29 16:48:42;;;;;;;0.10;0.10;;;14.90;69.40;;;;;;5034578;28;20095;-68